Time;durP1;ratioP1;P1;durP2;ratioP2;P2;SDS_P1;SDS_P2;PMS_P1;PMS_P2;Temp;Humidity;BMP_temperature;BMP_pressure;BME280_temperature;BME280_humidity;BME280_pressure;Samples;Min_cycle;Max_cycle;Signal;HPM_P1;HPM_P2
2022/03/05 00:00:10;;;;;;;360.60;115.47;;;;;;;6.02;69.70;99489.88;342408;28;965;-67
2022/03/05 00:00:21;;;;;;;360.58;115.45;;;;;;;6.02;69.45;99483.81;340900;28;1279;-68
2022/03/05 00:00:31;;;;;;;357.85;114.22;;;;;;;6.02;69.89;99481.22;341096;28;1825;-67
2022/03/05 00:00:43;;;;;;;357.83;112.63;;;;;;;6.02;69.45;99484.69;342648;28;872;-68
2022/03/05 00:00:53;;;;;;;356.98;113.32;;;;;;;6.00;69.51;99484.72;343744;28;880;-67
2022/03/05 00:01:04;;;;;;;356.87;114.53;;;;;;;6.01;69.44;99488.16;343680;28;1094;-68
2022/03/05 00:01:14;;;;;;;357.23;115.15;;;;;;;5.99;69.26;99488.19;341906;28;1162;-68
2022/03/05 00:01:25;;;;;;;356.33;112.90;;;;;;;6.00;69.44;99483.88;340320;28;953;-68
2022/03/05 00:01:35;;;;;;;356.47;111.57;;;;;;;5.99;69.50;99488.19;339998;29;791;-68
2022/03/05 00:01:46;;;;;;;355.42;110.95;;;;;;;5.99;69.45;99492.53;338450;29;870;-68
2022/03/05 00:01:56;;;;;;;356.57;112.00;;;;;;;5.98;69.56;99485.66;339927;29;795;-68
2022/03/05 00:02:06;;;;;;;356.40;112.30;;;;;;;5.99;69.65;99484.75;339540;29;1307;-68
2022/03/05 00:02:17;;;;;;;358.30;112.90;;;;;;;5.99;69.47;99487.34;339893;29;888;-68
2022/03/05 00:02:27;;;;;;;360.83;112.87;;;;;;;6.00;69.47;99483.88;338042;29;870;-68
2022/03/05 00:02:38;;;;;;;362.23;114.45;;;;;;;5.99;69.57;99490.81;337263;29;834;-68
2022/03/05 00:02:48;;;;;;;360.50;115.13;;;;;;;5.99;69.48;99485.59;336504;29;1295;-68
2022/03/05 00:02:59;;;;;;;358.73;116.40;;;;;;;5.98;69.50;99486.50;336468;29;1650;-68
2022/03/05 00:03:10;;;;;;;357.40;116.50;;;;;;;5.97;69.30;99483.94;338191;29;893;-68
2022/03/05 00:03:20;;;;;;;355.67;113.63;;;;;;;5.97;69.75;99490.00;341991;28;1291;-68
2022/03/05 00:03:31;;;;;;;356.75;112.80;;;;;;;5.95;69.88;99485.72;341064;28;1136;-68
2022/03/05 00:03:42;;;;;;;361.53;112.87;;;;;;;5.96;69.92;99484.81;339848;29;849;-68
2022/03/05 00:03:52;;;;;;;363.10;114.20;;;;;;;5.94;69.91;99484.00;340975;28;1382;-68
2022/03/05 00:04:02;;;;;;;364.90;115.83;;;;;;;5.94;69.86;99486.59;340854;28;2100;-68
2022/03/05 00:04:15;;;;;;;361.45;114.85;;;;;;;5.92;69.83;99481.44;342677;28;1088;-68
2022/03/05 00:04:26;;;;;;;363.18;114.50;;;;;;;5.92;69.81;99481.44;342363;28;1280;-68
2022/03/05 00:04:36;;;;;;;362.77;114.50;;;;;;;5.91;69.97;99478.88;340456;28;1740;-68
2022/03/05 00:04:47;;;;;;;361.60;114.37;;;;;;;5.91;70.08;99484.09;341149;28;1211;-68
2022/03/05 00:04:58;;;;;;;361.75;114.38;;;;;;;5.91;69.77;99484.09;341159;28;1074;-68
2022/03/05 00:05:10;;;;;;;361.73;115.17;;;;;;;5.90;70.02;99484.97;341623;28;1080;-68
2022/03/05 00:05:20;;;;;;;358.17;114.97;;;;;;;5.90;69.98;99485.81;342454;28;853;-68
2022/03/05 00:05:31;;;;;;;356.15;114.03;;;;;;;5.89;70.08;99481.53;342160;28;941;-68
2022/03/05 00:05:41;;;;;;;356.77;114.07;;;;;;;5.90;69.69;99483.22;340038;29;810;-68
2022/03/05 00:05:51;;;;;;;359.50;113.22;;;;;;;5.90;69.63;99479.78;339706;29;1314;-70
2022/03/05 00:06:02;;;;;;;358.07;111.77;;;;;;;5.91;69.92;99478.88;340022;28;1392;-68
2022/03/05 00:06:12;;;;;;;356.67;110.38;;;;;;;5.91;69.90;99490.13;341567;28;944;-68
2022/03/05 00:06:23;;;;;;;354.77;110.03;;;;;;;5.92;69.55;99490.97;340607;28;1872;-68
2022/03/05 00:06:33;;;;;;;356.07;110.70;;;;;;;5.89;69.81;99480.66;338430;29;1120;-68
2022/03/05 00:06:43;;;;;;;353.07;109.90;;;;;;;5.91;69.82;99484.09;338523;29;889;-68
2022/03/05 00:06:54;;;;;;;352.90;110.43;;;;;;;5.89;69.62;99480.66;339491;28;1201;-68
2022/03/05 00:07:04;;;;;;;353.77;111.00;;;;;;;5.88;69.79;99490.16;340486;28;1286;-68
2022/03/05 00:07:15;;;;;;;357.10;112.68;;;;;;;5.88;69.76;99484.13;343431;28;825;-68
2022/03/05 00:07:25;;;;;;;360.00;113.70;;;;;;;5.89;69.77;99485.88;343611;28;1407;-68
2022/03/05 00:07:35;;;;;;;359.95;113.03;;;;;;;5.91;69.58;99484.09;341160;28;1244;-68
2022/03/05 00:07:46;;;;;;;358.60;112.63;;;;;;;5.90;69.59;99487.56;337833;28;1239;-68
2022/03/05 00:07:56;;;;;;;356.63;112.25;;;;;;;5.89;69.71;99488.47;340722;28;1292;-67
2022/03/05 00:08:07;;;;;;;356.30;113.30;;;;;;;5.91;69.60;99489.28;343653;28;3345;-67
2022/03/05 00:08:18;;;;;;;358.00;113.40;;;;;;;5.90;69.47;99482.38;343656;28;904;-67
2022/03/05 00:08:28;;;;;;;356.58;112.00;;;;;;;5.88;69.68;99484.13;342335;28;983;-67
2022/03/05 00:08:38;;;;;;;355.10;111.00;;;;;;;5.87;69.81;99482.41;339677;29;1095;-67
2022/03/05 00:08:49;;;;;;;353.47;110.70;;;;;;;5.86;69.75;99486.75;340697;28;1477;-67
2022/03/05 00:08:59;;;;;;;354.97;111.27;;;;;;;5.85;70.03;99489.38;343446;28;1689;-67
2022/03/05 00:09:10;;;;;;;356.97;111.93;;;;;;;5.85;69.98;99484.19;343699;28;868;-68
2022/03/05 00:09:20;;;;;;;358.02;112.10;;;;;;;5.84;70.21;99482.50;340719;28;951;-68
2022/03/05 00:09:30;;;;;;;360.30;112.70;;;;;;;5.84;69.90;99490.28;342332;28;1454;-68
2022/03/05 00:09:41;;;;;;;360.55;110.88;;;;;;;5.85;70.05;99491.97;343185;28;1708;-68
2022/03/05 00:09:51;;;;;;;357.73;107.47;;;;;;;5.86;69.99;99485.91;342394;28;1216;-68
2022/03/05 00:10:02;;;;;;;357.13;106.38;;;;;;;5.85;69.99;99485.03;342346;28;1326;-68
2022/03/05 00:10:14;;;;;;;356.23;107.97;;;;;;;5.87;70.22;99492.81;342358;28;991;-68
2022/03/05 00:10:24;;;;;;;356.85;110.75;;;;;;;5.87;70.30;99488.47;339711;28;1279;-68
2022/03/05 00:10:35;;;;;;;357.92;111.72;;;;;;;5.88;69.99;99491.91;339869;29;862;-68
2022/03/05 00:10:45;;;;;;;358.55;111.00;;;;;;;5.89;70.14;99493.66;338484;29;866;-68
2022/03/05 00:10:56;;;;;;;359.10;109.63;;;;;;;5.89;69.97;99480.66;338813;29;1772;-68
2022/03/05 00:11:06;;;;;;;358.70;110.10;;;;;;;5.89;69.95;99485.88;339694;29;853;-68
2022/03/05 00:11:17;;;;;;;357.23;111.73;;;;;;;5.90;70.04;99492.75;342433;28;929;-68
2022/03/05 00:11:27;;;;;;;355.05;112.32;;;;;;;5.90;70.00;99488.41;342220;28;1469;-68
2022/03/05 00:11:39;;;;;;;354.07;111.63;;;;;;;5.89;70.10;99489.31;342344;28;948;-68
2022/03/05 00:11:49;;;;;;;353.75;110.53;;;;;;;5.90;70.30;99491.03;341106;28;1901;-68
2022/03/05 00:11:59;;;;;;;356.77;110.77;;;;;;;5.90;70.09;99483.22;338456;29;1500;-68
2022/03/05 00:12:10;;;;;;;359.38;111.00;;;;;;;5.92;70.11;99485.78;342042;28;1246;-68
2022/03/05 00:12:20;;;;;;;358.47;110.93;;;;;;;5.91;70.20;99489.28;343749;28;901;-68
2022/03/05 00:12:31;;;;;;;356.13;111.35;;;;;;;5.91;70.41;99489.28;341940;28;821;-68
2022/03/05 00:12:41;;;;;;;354.03;113.23;;;;;;;5.91;70.41;99486.69;338175;28;1271;-68
2022/03/05 00:12:51;;;;;;;356.90;115.85;;;;;;;5.89;70.41;99485.88;337919;29;892;-68
2022/03/05 00:13:02;;;;;;;359.20;115.90;;;;;;;5.88;70.20;99486.72;339094;28;1275;-68
2022/03/05 00:13:12;;;;;;;362.38;115.80;;;;;;;5.86;70.52;99488.50;340237;28;1409;-68
2022/03/05 00:13:23;;;;;;;359.47;112.33;;;;;;;5.85;70.53;99486.78;342159;28;1497;-68
2022/03/05 00:13:35;;;;;;;357.53;111.40;;;;;;;5.84;70.54;99488.53;342387;28;1004;-68
2022/03/05 00:13:46;;;;;;;355.27;109.65;;;;;;;5.85;70.60;99484.19;341513;28;1983;-68
2022/03/05 00:13:56;;;;;;;357.23;112.28;;;;;;;5.83;70.25;99485.97;341442;28;1642;-68
2022/03/05 00:14:07;;;;;;;355.90;110.93;;;;;;;5.82;71.02;99490.31;342288;28;1195;-68
2022/03/05 00:14:18;;;;;;;353.90;111.15;;;;;;;5.82;70.64;99489.47;343440;28;1129;-68
2022/03/05 00:14:28;;;;;;;352.85;109.90;;;;;;;5.82;70.84;99486.88;341052;28;917;-68
2022/03/05 00:14:38;;;;;;;353.07;111.00;;;;;;;5.83;70.72;99491.16;342214;28;817;-68
2022/03/05 00:14:49;;;;;;;352.67;109.50;;;;;;;5.82;70.59;99489.47;342338;28;1651;-68
2022/03/05 00:14:59;;;;;;;351.70;109.53;;;;;;;5.82;70.64;99484.25;340880;28;1231;-68
2022/03/05 00:15:09;;;;;;;354.95;110.13;;;;;;;5.83;70.68;99485.97;342425;28;1023;-68
2022/03/05 00:15:20;;;;;;;356.73;111.40;;;;;;;5.82;70.55;99486.88;343536;28;1445;-68
2022/03/05 00:15:30;;;;;;;357.50;110.23;;;;;;;5.83;70.53;99485.97;342345;28;822;-68
2022/03/05 00:15:43;;;;;;;355.90;109.27;;;;;;;5.83;70.78;99491.16;342544;28;957;-68
2022/03/05 00:15:53;;;;;;;355.13;109.35;;;;;;;5.83;70.83;99486.81;341841;28;1428;-68
2022/03/05 00:16:04;;;;;;;355.77;110.17;;;;;;;5.82;70.79;99484.25;340595;28;1592;-68
2022/03/05 00:16:14;;;;;;;354.92;110.00;;;;;;;5.78;70.65;99482.63;341126;28;844;-68
2022/03/05 00:16:25;;;;;;;355.63;111.33;;;;;;;5.76;70.75;99484.41;340754;28;1329;-68
2022/03/05 00:16:35;;;;;;;358.63;112.68;;;;;;;5.76;70.97;99487.00;342492;28;1199;-68
2022/03/05 00:16:46;;;;;;;358.57;113.10;;;;;;;5.76;70.88;99485.25;342138;28;1197;-68
2022/03/05 00:16:56;;;;;;;357.48;111.50;;;;;;;5.76;71.01;99481.81;342428;28;944;-68
2022/03/05 00:17:07;;;;;;;357.20;112.23;;;;;;;5.75;70.83;99482.69;343735;28;901;-68
2022/03/05 00:17:17;;;;;;;358.13;112.13;;;;;;;5.74;71.20;99478.41;345228;28;887;-68
2022/03/05 00:17:27;;;;;;;358.67;112.30;;;;;;;5.74;70.90;99486.19;343264;28;1310;-68
2022/03/05 00:17:38;;;;;;;360.15;114.03;;;;;;;5.75;71.01;99490.50;342360;28;1216;-68
2022/03/05 00:17:48;;;;;;;359.90;114.27;;;;;;;5.75;71.29;99482.69;340563;28;1287;-68
2022/03/05 00:17:59;;;;;;;360.85;115.43;;;;;;;5.75;70.91;99490.50;339111;28;945;-68
2022/03/05 00:18:09;;;;;;;359.13;113.80;;;;;;;5.77;71.11;99486.97;338706;29;973;-68
2022/03/05 00:18:19;;;;;;;358.67;114.68;;;;;;;5.76;71.24;99484.41;340540;28;1449;-68
2022/03/05 00:18:30;;;;;;;355.53;112.07;;;;;;;5.77;70.96;99480.91;341819;28;1733;-68
2022/03/05 00:18:41;;;;;;;356.50;110.82;;;;;;;5.78;70.91;99485.22;340667;28;1018;-67
2022/03/05 00:18:51;;;;;;;355.87;109.23;;;;;;;5.78;70.80;99480.03;342247;28;1321;-67
2022/03/05 00:19:02;;;;;;;358.40;110.50;;;;;;;5.77;71.35;99488.72;341604;28;1085;-67
2022/03/05 00:19:12;;;;;;;357.60;111.30;;;;;;;5.77;71.07;99489.56;339751;29;1205;-67
2022/03/05 00:19:22;;;;;;;359.33;112.83;;;;;;;5.77;70.91;99480.91;340879;28;1197;-67
2022/03/05 00:19:33;;;;;;;358.97;113.73;;;;;;;5.77;70.90;99480.91;342232;28;1160;-67
2022/03/05 00:19:43;;;;;;;359.55;112.93;;;;;;;5.77;70.94;99480.91;341005;28;886;-67
2022/03/05 00:19:54;;;;;;;360.00;111.03;;;;;;;5.77;70.88;99486.13;339782;28;1920;-67
2022/03/05 00:20:05;;;;;;;359.75;111.78;;;;;;;5.75;71.05;99483.56;342114;28;2174;-67
2022/03/05 00:20:16;;;;;;;359.17;111.50;;;;;;;5.75;71.30;99487.88;342354;28;924;-67
2022/03/05 00:20:26;;;;;;;360.13;110.75;;;;;;;5.74;70.90;99484.44;342593;28;1075;-68
2022/03/05 00:20:36;;;;;;;360.47;110.47;;;;;;;5.74;71.08;99481.84;341596;28;897;-68
2022/03/05 00:20:47;;;;;;;360.20;111.23;;;;;;;5.73;70.92;99489.66;341032;28;1497;-68
2022/03/05 00:20:57;;;;;;;361.63;113.40;;;;;;;5.73;70.89;99482.72;340694;28;1653;-68
2022/03/05 00:21:08;;;;;;;358.23;111.05;;;;;;;5.72;70.95;99478.44;341784;28;1280;-68
2022/03/05 00:21:18;;;;;;;357.47;111.70;;;;;;;5.70;71.06;99488.00;343468;28;1351;-68
2022/03/05 00:21:28;;;;;;;355.38;110.75;;;;;;;5.69;70.96;99481.94;343469;28;1876;-68
2022/03/05 00:21:39;;;;;;;356.40;112.27;;;;;;;5.69;70.82;99484.53;343752;28;910;-68
2022/03/05 00:21:49;;;;;;;355.90;111.13;;;;;;;5.67;70.90;99481.13;343725;28;797;-68
2022/03/05 00:22:01;;;;;;;356.30;109.67;;;;;;;5.67;70.87;99475.94;338459;29;1510;-68
2022/03/05 00:22:11;;;;;;;357.45;108.28;;;;;;;5.66;70.81;99483.75;338346;29;1281;-68
2022/03/05 00:22:22;;;;;;;357.07;108.70;;;;;;;5.67;70.73;99481.13;340915;28;881;-68
2022/03/05 00:22:32;;;;;;;358.33;111.63;;;;;;;5.67;70.72;99481.13;341405;28;996;-68
2022/03/05 00:22:42;;;;;;;357.87;112.30;;;;;;;5.68;70.72;99482.84;341111;28;880;-68
2022/03/05 00:22:53;;;;;;;358.85;113.13;;;;;;;5.68;70.71;99487.19;340224;28;926;-68
2022/03/05 00:23:03;;;;;;;357.10;112.90;;;;;;;5.67;70.68;99486.31;339084;28;1295;-68
2022/03/05 00:23:16;;;;;;;356.50;113.50;;;;;;;5.69;70.75;99487.16;339447;29;1218;-68
2022/03/05 00:23:27;;;;;;;359.75;113.03;;;;;;;5.69;70.57;99481.94;342071;28;722;-68
2022/03/05 00:23:37;;;;;;;360.53;111.80;;;;;;;5.71;70.80;99481.06;341163;28;943;-69
2022/03/05 00:23:47;;;;;;;359.08;111.93;;;;;;;5.73;70.79;99484.47;341003;28;1347;-68
2022/03/05 00:23:58;;;;;;;356.03;109.97;;;;;;;5.74;70.67;99481.00;342372;28;1363;-68
2022/03/05 00:24:09;;;;;;;355.17;109.75;;;;;;;5.74;70.70;99481.84;342153;28;892;-68
2022/03/05 00:24:19;;;;;;;354.95;109.05;;;;;;;5.76;70.57;99479.22;342013;28;1194;-68
2022/03/05 00:24:29;;;;;;;354.40;110.67;;;;;;;5.77;70.48;99478.31;341046;28;921;-68
2022/03/05 00:24:40;;;;;;;354.85;109.07;;;;;;;5.78;70.64;99482.63;342348;28;953;-68
2022/03/05 00:24:50;;;;;;;352.20;107.03;;;;;;;5.78;70.26;99477.44;338958;28;1735;-68
2022/03/05 00:25:01;;;;;;;352.13;106.53;;;;;;;5.80;70.18;99478.25;342422;28;877;-68
2022/03/05 00:25:11;;;;;;;352.58;107.47;;;;;;;5.81;70.48;99485.16;342209;28;896;-68
2022/03/05 00:25:24;;;;;;;354.33;109.00;;;;;;;5.81;70.21;99480.81;342965;28;1240;-68
2022/03/05 00:25:34;;;;;;;354.10;108.10;;;;;;;5.82;70.46;99484.25;342401;28;937;-68
2022/03/05 00:25:45;;;;;;;355.00;109.70;;;;;;;5.82;70.49;99482.53;341103;28;905;-68
2022/03/05 00:25:55;;;;;;;353.60;109.80;;;;;;;5.82;70.14;99481.66;338504;29;1392;-68
2022/03/05 00:26:06;;;;;;;353.77;110.18;;;;;;;5.82;70.61;99485.13;339647;29;802;-68
2022/03/05 00:26:17;;;;;;;354.03;109.73;;;;;;;5.81;70.54;99482.56;341390;28;1192;-68
2022/03/05 00:26:27;;;;;;;358.58;111.05;;;;;;;5.82;70.54;99476.47;341271;28;1634;-68
2022/03/05 00:26:38;;;;;;;356.63;110.23;;;;;;;5.82;70.65;99485.13;341044;28;874;-68
2022/03/05 00:26:48;;;;;;;358.05;111.18;;;;;;;5.83;70.61;99485.97;338421;29;909;-68
2022/03/05 00:26:58;;;;;;;356.10;112.03;;;;;;;5.82;70.54;99482.53;341481;28;1367;-68
2022/03/05 00:27:09;;;;;;;357.73;111.63;;;;;;;5.82;70.34;99481.66;342657;28;781;-68
2022/03/05 00:27:19;;;;;;;354.33;109.82;;;;;;;5.83;70.35;99478.19;343904;28;907;-68
2022/03/05 00:27:30;;;;;;;355.92;107.50;;;;;;;5.82;70.71;99486.88;344073;28;949;-68
2022/03/05 00:27:41;;;;;;;355.07;106.67;;;;;;;5.79;70.74;99486.94;343948;28;1083;-68
2022/03/05 00:27:51;;;;;;;358.33;106.28;;;;;;;5.80;70.66;99478.25;344075;28;881;-68
2022/03/05 00:28:02;;;;;;;356.80;107.50;;;;;;;5.80;70.62;99486.03;343776;28;1079;-68
2022/03/05 00:28:12;;;;;;;357.27;109.57;;;;;;;5.79;70.82;99484.34;343274;28;2458;-68
2022/03/05 00:28:23;;;;;;;356.50;111.15;;;;;;;5.79;70.81;99480.00;341076;28;1735;-68
2022/03/05 00:28:33;;;;;;;355.73;111.67;;;;;;;5.81;70.75;99491.19;341357;29;795;-68
2022/03/05 00:28:43;;;;;;;356.13;111.30;;;;;;;5.82;70.87;99484.25;342579;28;1290;-68
2022/03/05 00:28:54;;;;;;;352.37;108.50;;;;;;;5.81;70.63;99483.41;341392;29;942;-68
2022/03/05 00:29:04;;;;;;;354.65;108.45;;;;;;;5.82;70.38;99479.06;346627;28;1352;-68
2022/03/05 00:29:15;;;;;;;352.17;108.07;;;;;;;5.83;70.72;99478.19;346410;28;1285;-68
2022/03/05 00:29:25;;;;;;;354.63;107.82;;;;;;;5.82;70.84;99484.25;345250;28;948;-68
2022/03/05 00:29:35;;;;;;;353.27;106.13;;;;;;;5.82;70.71;99481.66;342685;28;1079;-68
2022/03/05 00:29:46;;;;;;;353.60;105.87;;;;;;;5.83;70.67;99483.38;342438;28;1590;-68
2022/03/05 00:29:56;;;;;;;352.58;106.57;;;;;;;5.84;70.40;99485.09;343358;28;2017;-68
2022/03/05 00:30:07;;;;;;;354.93;106.73;;;;;;;5.84;70.37;99478.16;343196;28;2095;-68
2022/03/05 00:30:17;;;;;;;352.02;106.50;;;;;;;5.85;69.97;99484.19;341280;28;944;-68
2022/03/05 00:30:28;;;;;;;351.60;106.30;;;;;;;5.85;70.41;99486.78;339983;29;886;-68
2022/03/05 00:30:38;;;;;;;352.80;107.00;;;;;;;5.86;70.04;99483.31;341274;29;865;-68
2022/03/05 00:30:48;;;;;;;356.98;106.90;;;;;;;5.85;69.89;99484.19;342660;28;861;-68
2022/03/05 00:31:00;;;;;;;355.40;106.57;;;;;;;5.87;70.19;99485.00;340894;29;2170;-68
2022/03/05 00:31:10;;;;;;;353.58;106.57;;;;;;;5.86;69.78;99483.31;341441;28;909;-68
2022/03/05 00:31:21;;;;;;;352.40;110.03;;;;;;;5.88;69.84;99484.13;340189;28;1012;-68
2022/03/05 00:31:31;;;;;;;353.77;111.53;;;;;;;5.88;70.02;99482.38;340474;28;810;-68
2022/03/05 00:31:42;;;;;;;355.23;111.97;;;;;;;5.87;69.98;99488.47;342889;28;1098;-68
2022/03/05 00:31:52;;;;;;;355.80;110.67;;;;;;;5.87;69.86;99490.19;342046;28;1922;-68
2022/03/05 00:32:03;;;;;;;354.05;110.45;;;;;;;5.87;69.53;99482.41;343163;28;1512;-67
2022/03/05 00:32:13;;;;;;;352.48;108.78;;;;;;;5.88;69.50;99484.97;343957;28;940;-67
2022/03/05 00:32:24;;;;;;;352.77;107.23;;;;;;;5.88;69.41;99484.13;339929;29;1201;-67
2022/03/05 00:32:34;;;;;;;353.23;106.63;;;;;;;5.88;69.61;99484.13;342581;28;902;-67
2022/03/05 00:32:46;;;;;;;354.07;107.00;;;;;;;5.87;69.42;99485.00;342581;28;1248;-67
2022/03/05 00:32:56;;;;;;;355.45;107.13;;;;;;;5.87;69.31;99480.66;341164;28;2557;-67
2022/03/05 00:33:07;;;;;;;356.43;106.80;;;;;;;5.87;69.11;99477.22;341086;28;1637;-67
2022/03/05 00:33:19;;;;;;;352.45;105.72;;;;;;;5.87;69.34;99482.41;342647;28;928;-67
2022/03/05 00:33:30;;;;;;;351.95;105.85;;;;;;;5.86;68.88;99480.72;342489;28;1032;-67
2022/03/05 00:33:40;;;;;;;350.90;105.33;;;;;;;5.86;69.02;99480.72;342550;28;972;-67
2022/03/05 00:33:50;;;;;;;353.70;105.95;;;;;;;5.85;69.23;99479.00;342720;28;860;-67
2022/03/05 00:34:01;;;;;;;353.63;106.53;;;;;;;5.85;68.91;99482.44;342601;28;1211;-67
2022/03/05 00:34:11;;;;;;;352.80;105.93;;;;;;;5.86;68.94;99475.50;341344;29;853;-67
2022/03/05 00:34:22;;;;;;;351.20;105.97;;;;;;;5.86;68.82;99481.56;342617;28;1011;-68
2022/03/05 00:34:32;;;;;;;351.38;105.60;;;;;;;5.88;68.74;99481.53;341291;29;1031;-67
2022/03/05 00:34:43;;;;;;;353.77;108.17;;;;;;;5.88;68.88;99482.38;339837;29;1945;-67
2022/03/05 00:34:53;;;;;;;352.98;107.13;;;;;;;5.87;69.11;99480.66;344039;28;863;-67
2022/03/05 00:35:04;;;;;;;353.43;106.90;;;;;;;5.88;68.80;99482.38;345139;28;1260;-67
2022/03/05 00:35:15;;;;;;;350.73;104.63;;;;;;;5.88;68.89;99482.38;345338;28;921;-67
2022/03/05 00:35:25;;;;;;;348.27;103.80;;;;;;;5.86;68.65;99476.38;345217;28;903;-67
2022/03/05 00:35:36;;;;;;;349.17;103.95;;;;;;;5.87;68.87;99483.28;342566;28;1280;-67
2022/03/05 00:35:46;;;;;;;349.10;103.93;;;;;;;5.86;68.54;99472.91;342497;28;1213;-67
2022/03/05 00:35:57;;;;;;;348.08;103.40;;;;;;;5.87;68.76;99483.28;343625;28;1946;-67
2022/03/05 00:36:07;;;;;;;346.53;103.43;;;;;;;5.88;68.65;99482.38;343596;28;841;-67
2022/03/05 00:36:18;;;;;;;348.10;103.55;;;;;;;5.88;68.65;99482.38;342756;28;1592;-67
2022/03/05 00:36:30;;;;;;;350.30;105.00;;;;;;;5.91;68.34;99484.09;343831;28;1802;-67
2022/03/05 00:36:40;;;;;;;349.80;105.28;;;;;;;5.88;68.22;99484.13;343941;28;1438;-67
2022/03/05 00:36:51;;;;;;;351.08;105.68;;;;;;;5.88;68.51;99484.13;342660;28;1016;-67
2022/03/05 00:37:01;;;;;;;349.90;103.90;;;;;;;5.88;68.81;99484.13;344560;28;1705;-67
2022/03/05 00:37:11;;;;;;;349.92;104.75;;;;;;;5.86;68.63;99481.56;342568;28;855;-67
2022/03/05 00:37:22;;;;;;;349.33;105.87;;;;;;;5.86;68.96;99475.50;345081;28;1237;-67
2022/03/05 00:37:32;;;;;;;351.90;107.43;;;;;;;5.86;68.62;99480.72;343999;28;972;-67
2022/03/05 00:37:43;;;;;;;351.83;106.23;;;;;;;5.85;69.01;99479.00;339935;29;2248;-67
2022/03/05 00:37:53;;;;;;;353.08;105.43;;;;;;;5.85;68.96;99479.00;343809;28;1252;-67
2022/03/05 00:38:04;;;;;;;352.07;105.20;;;;;;;5.86;69.02;99475.50;343843;28;1749;-67
2022/03/05 00:38:14;;;;;;;351.40;105.13;;;;;;;5.85;68.90;99476.41;346719;28;1674;-67
2022/03/05 00:38:25;;;;;;;348.60;103.73;;;;;;;5.86;68.86;99480.72;343972;28;2261;-67
2022/03/05 00:38:35;;;;;;;349.38;104.38;;;;;;;5.87;68.90;99483.28;342424;28;1298;-67
2022/03/05 00:38:46;;;;;;;350.27;103.80;;;;;;;5.88;69.07;99486.72;340200;28;1219;-67
2022/03/05 00:38:56;;;;;;;349.47;105.10;;;;;;;5.87;68.75;99482.41;344054;28;876;-67
2022/03/05 00:39:06;;;;;;;349.85;105.47;;;;;;;5.88;69.02;99489.31;342694;28;865;-67
2022/03/05 00:39:17;;;;;;;349.23;105.93;;;;;;;5.86;69.05;99480.72;345222;28;980;-67
2022/03/05 00:39:28;;;;;;;353.38;104.80;;;;;;;5.85;68.80;99479.00;343759;28;935;-67
2022/03/05 00:39:38;;;;;;;352.70;103.07;;;;;;;5.85;68.82;99481.59;346523;28;1728;-67
2022/03/05 00:39:48;;;;;;;353.23;103.70;;;;;;;5.83;68.97;99475.59;344302;28;1910;-67
2022/03/05 00:39:59;;;;;;;350.07;104.00;;;;;;;5.84;68.87;99479.88;341270;29;944;-67
2022/03/05 00:40:09;;;;;;;348.25;103.57;;;;;;;5.83;69.09;99483.38;343675;28;1491;-67
2022/03/05 00:40:20;;;;;;;349.93;103.70;;;;;;;5.82;68.97;99479.06;341930;28;1740;-67
2022/03/05 00:40:30;;;;;;;352.63;105.05;;;;;;;5.81;68.80;99482.56;341187;29;1337;-67
2022/03/05 00:40:41;;;;;;;351.30;105.27;;;;;;;5.78;69.08;99475.69;343941;28;1339;-67
2022/03/05 00:40:51;;;;;;;348.65;104.72;;;;;;;5.79;69.22;99479.13;343978;28;1248;-67
2022/03/05 00:41:02;;;;;;;348.02;104.95;;;;;;;5.77;69.36;99480.91;344935;28;1930;-67
2022/03/05 00:41:12;;;;;;;349.57;104.77;;;;;;;5.75;69.22;99483.56;344790;28;963;-67
2022/03/05 00:41:23;;;;;;;350.30;105.03;;;;;;;5.75;69.49;99482.69;344182;28;1850;-67
2022/03/05 00:41:33;;;;;;;348.03;103.43;;;;;;;5.75;69.23;99482.69;342615;28;1026;-67
2022/03/05 00:41:44;;;;;;;351.63;104.43;;;;;;;5.72;69.33;99482.78;341266;29;934;-67
2022/03/05 00:41:54;;;;;;;351.60;104.20;;;;;;;5.72;69.66;99477.56;342538;28;1181;-67
2022/03/05 00:42:05;;;;;;;353.60;105.38;;;;;;;5.71;69.43;99475.88;345147;28;1576;-67
2022/03/05 00:42:15;;;;;;;352.63;105.97;;;;;;;5.69;69.73;99479.34;341258;29;933;-67
2022/03/05 00:42:26;;;;;;;352.80;106.30;;;;;;;5.71;69.95;99481.06;343905;28;1082;-67
2022/03/05 00:42:36;;;;;;;353.38;108.40;;;;;;;5.69;69.69;99479.34;345789;28;2549;-67
2022/03/05 00:42:46;;;;;;;352.00;108.17;;;;;;;5.69;69.68;99479.34;346213;28;1161;-67
2022/03/05 00:42:57;;;;;;;349.90;107.43;;;;;;;5.71;69.51;99481.91;343923;28;1519;-68
2022/03/05 00:43:07;;;;;;;349.57;106.43;;;;;;;5.69;69.72;99481.09;343729;28;1925;-67
2022/03/05 00:43:18;;;;;;;351.60;106.90;;;;;;;5.69;69.79;99478.50;342676;28;890;-67
2022/03/05 00:43:28;;;;;;;350.85;107.07;;;;;;;5.67;69.79;99486.31;342556;28;1035;-67
2022/03/05 00:43:38;;;;;;;349.80;106.53;;;;;;;5.68;69.98;99487.19;340881;29;979;-67
2022/03/05 00:43:49;;;;;;;349.03;104.60;;;;;;;5.69;69.90;99483.69;341335;29;861;-67
2022/03/05 00:43:59;;;;;;;350.30;103.70;;;;;;;5.68;69.41;99480.25;342689;28;841;-67
2022/03/05 00:44:10;;;;;;;352.02;105.07;;;;;;;5.69;69.85;99484.53;341193;28;1325;-67
2022/03/05 00:44:20;;;;;;;353.10;106.80;;;;;;;5.68;69.86;99474.19;341284;29;956;-67
2022/03/05 00:44:30;;;;;;;354.33;108.25;;;;;;;5.68;70.31;99482.84;341282;29;932;-67
2022/03/05 00:44:41;;;;;;;351.13;107.40;;;;;;;5.68;69.70;99482.84;342517;28;1293;-67
2022/03/05 00:44:51;;;;;;;349.90;106.25;;;;;;;5.67;69.69;99481.13;345288;28;1366;-67
2022/03/05 00:45:02;;;;;;;348.23;105.57;;;;;;;5.69;69.72;99478.50;345177;28;1212;-67
2022/03/05 00:45:13;;;;;;;349.77;106.03;;;;;;;5.68;69.70;99477.66;345282;28;861;-67
2022/03/05 00:45:23;;;;;;;350.95;106.78;;;;;;;5.67;69.63;99477.69;343883;28;1225;-67
2022/03/05 00:45:34;;;;;;;355.47;107.00;;;;;;;5.68;69.91;99482.84;342677;28;815;-67
2022/03/05 00:45:44;;;;;;;354.27;106.07;;;;;;;5.68;69.43;99482.84;341239;29;1327;-67
2022/03/05 00:45:54;;;;;;;355.33;107.43;;;;;;;5.69;69.84;99479.34;344795;28;1846;-67
2022/03/05 00:46:05;;;;;;;354.17;108.45;;;;;;;5.71;69.69;99478.47;343744;28;884;-67
2022/03/05 00:46:15;;;;;;;352.97;106.80;;;;;;;5.72;69.84;99482.78;343960;28;936;-67
2022/03/05 00:46:26;;;;;;;351.23;105.20;;;;;;;5.72;69.77;99472.38;343962;28;1620;-67
2022/03/05 00:46:36;;;;;;;351.67;105.97;;;;;;;5.73;70.00;99479.28;342552;28;1260;-67
2022/03/05 00:46:46;;;;;;;353.50;108.13;;;;;;;5.72;69.85;99482.78;342554;28;868;-67
2022/03/05 00:46:57;;;;;;;353.30;107.90;;;;;;;5.71;70.01;99475.88;342543;28;1483;-67
2022/03/05 00:47:07;;;;;;;349.67;105.60;;;;;;;5.69;69.94;99479.34;343880;28;1315;-67
2022/03/05 00:47:17;;;;;;;350.33;104.55;;;;;;;5.67;70.14;99475.94;342360;28;1921;-67
2022/03/05 00:47:28;;;;;;;351.90;105.40;;;;;;;5.67;70.05;99478.53;343601;28;1891;-67
2022/03/05 00:47:38;;;;;;;353.52;106.55;;;;;;;5.66;70.35;99476.81;341213;29;1126;-67
2022/03/05 00:47:49;;;;;;;351.67;105.67;;;;;;;5.67;70.22;99475.94;342570;28;1185;-67
2022/03/05 00:47:59;;;;;;;350.90;104.32;;;;;;;5.68;69.99;99481.97;342636;28;813;-67
2022/03/05 00:48:09;;;;;;;349.07;104.23;;;;;;;5.66;70.10;99475.97;345090;28;1471;-67
2022/03/05 00:48:20;;;;;;;350.80;105.40;;;;;;;5.67;70.18;99481.13;342668;28;865;-67
2022/03/05 00:48:30;;;;;;;350.87;106.00;;;;;;;5.67;70.17;99480.28;343880;28;1287;-67
2022/03/05 00:48:40;;;;;;;350.83;105.33;;;;;;;5.68;70.30;99471.59;346657;28;981;-67
2022/03/05 00:48:52;;;;;;;349.98;104.38;;;;;;;5.67;70.35;99481.13;345232;28;1538;-67
2022/03/05 00:49:02;;;;;;;351.27;104.90;;;;;;;5.66;70.37;99473.38;342648;28;917;-68
2022/03/05 00:49:12;;;;;;;351.17;107.10;;;;;;;5.67;70.19;99473.34;342521;28;1002;-67
2022/03/05 00:49:23;;;;;;;353.30;108.97;;;;;;;5.67;70.08;99478.53;343773;28;1205;-67